sensor_id;sensor_type;location;lat;lon;timestamp;P1;durP1;ratioP1;P2;durP2;ratioP2
23159;SDS011;11748;50.844;4.396;2022-11-20T00:03:35;48.50;;;28.42;;
23159;SDS011;11748;50.844;4.396;2022-11-20T00:06:01;47.15;;;27.45;;
23159;SDS011;11748;50.844;4.396;2022-11-20T00:08:31;46.63;;;26.35;;
23159;SDS011;11748;50.844;4.396;2022-11-20T00:11:01;49.80;;;28.55;;
23159;SDS011;11748;50.844;4.396;2022-11-20T00:13:30;43.85;;;27.60;;
23159;SDS011;11748;50.844;4.396;2022-11-20T00:15:56;48.72;;;28.65;;
23159;SDS011;11748;50.844;4.396;2022-11-20T00:18:23;49.70;;;29.83;;
23159;SDS011;11748;50.844;4.396;2022-11-20T00:20:49;52.35;;;31.55;;
23159;SDS011;11748;50.844;4.396;2022-11-20T00:23:15;48.63;;;28.27;;
23159;SDS011;11748;50.844;4.396;2022-11-20T00:25:40;47.75;;;29.02;;
23159;SDS011;11748;50.844;4.396;2022-11-20T00:28:06;47.40;;;28.08;;
23159;SDS011;11748;50.844;4.396;2022-11-20T00:30:33;52.03;;;28.40;;
23159;SDS011;11748;50.844;4.396;2022-11-20T00:32:58;44.88;;;28.42;;
23159;SDS011;11748;50.844;4.396;2022-11-20T00:35:24;44.78;;;27.10;;
23159;SDS011;11748;50.844;4.396;2022-11-20T00:37:50;49.78;;;27.58;;
23159;SDS011;11748;50.844;4.396;2022-11-20T00:40:15;43.95;;;27.52;;
23159;SDS011;11748;50.844;4.396;2022-11-20T00:42:41;43.72;;;28.40;;
23159;SDS011;11748;50.844;4.396;2022-11-20T00:45:07;45.60;;;27.67;;
23159;SDS011;11748;50.844;4.396;2022-11-20T00:47:32;44.78;;;27.65;;
23159;SDS011;11748;50.844;4.396;2022-11-20T00:49:58;41.08;;;27.67;;
23159;SDS011;11748;50.844;4.396;2022-11-20T00:52:24;43.53;;;28.17;;
23159;SDS011;11748;50.844;4.396;2022-11-20T00:54:50;44.20;;;28.58;;
23159;SDS011;11748;50.844;4.396;2022-11-20T00:57:16;50.63;;;28.25;;
23159;SDS011;11748;50.844;4.396;2022-11-20T00:59:42;42.70;;;26.67;;
23159;SDS011;11748;50.844;4.396;2022-11-20T01:02:08;42.88;;;27.60;;
23159;SDS011;11748;50.844;4.396;2022-11-20T01:04:34;41.88;;;27.60;;
23159;SDS011;11748;50.844;4.396;2022-11-20T01:07:01;45.03;;;26.27;;
23159;SDS011;11748;50.844;4.396;2022-11-20T01:09:27;40.15;;;26.58;;
23159;SDS011;11748;50.844;4.396;2022-11-20T01:11:52;43.22;;;27.05;;
23159;SDS011;11748;50.844;4.396;2022-11-20T01:14:19;38.65;;;26.45;;
23159;SDS011;11748;50.844;4.396;2022-11-20T01:16:46;42.25;;;26.80;;
23159;SDS011;11748;50.844;4.396;2022-11-20T01:19:15;44.05;;;27.48;;
23159;SDS011;11748;50.844;4.396;2022-11-20T01:21:46;45.42;;;27.00;;
23159;SDS011;11748;50.844;4.396;2022-11-20T01:24:15;44.33;;;25.42;;
23159;SDS011;11748;50.844;4.396;2022-11-20T01:26:43;41.10;;;27.05;;
23159;SDS011;11748;50.844;4.396;2022-11-20T01:29:14;38.67;;;24.98;;
23159;SDS011;11748;50.844;4.396;2022-11-20T01:31:44;43.95;;;26.42;;
23159;SDS011;11748;50.844;4.396;2022-11-20T01:34:11;45.70;;;25.80;;
23159;SDS011;11748;50.844;4.396;2022-11-20T01:36:40;42.33;;;26.23;;
23159;SDS011;11748;50.844;4.396;2022-11-20T01:39:07;44.90;;;26.08;;
23159;SDS011;11748;50.844;4.396;2022-11-20T01:41:50;43.78;;;26.48;;
23159;SDS011;11748;50.844;4.396;2022-11-20T01:47:28;43.53;;;25.88;;
23159;SDS011;11748;50.844;4.396;2022-11-20T01:55:49;39.65;;;25.48;;
23159;SDS011;11748;50.844;4.396;2022-11-20T01:58:20;41.65;;;25.45;;
23159;SDS011;11748;50.844;4.396;2022-11-20T02:00:50;44.83;;;26.58;;
23159;SDS011;11748;50.844;4.396;2022-11-20T02:03:16;44.53;;;27.05;;
23159;SDS011;11748;50.844;4.396;2022-11-20T02:06:19;40.25;;;25.83;;
23159;SDS011;11748;50.844;4.396;2022-11-20T02:08:37;45.10;;;27.92;;
23159;SDS011;11748;50.844;4.396;2022-11-20T02:11:04;43.53;;;26.75;;
23159;SDS011;11748;50.844;4.396;2022-11-20T02:13:30;44.55;;;27.67;;
23159;SDS011;11748;50.844;4.396;2022-11-20T02:18:59;48.83;;;27.95;;
23159;SDS011;11748;50.844;4.396;2022-11-20T02:21:46;46.15;;;26.88;;
23159;SDS011;11748;50.844;4.396;2022-11-20T02:24:21;49.47;;;29.35;;
23159;SDS011;11748;50.844;4.396;2022-11-20T02:26:54;48.42;;;28.17;;
23159;SDS011;11748;50.844;4.396;2022-11-20T02:29:33;45.88;;;27.92;;
23159;SDS011;11748;50.844;4.396;2022-11-20T02:32:21;48.00;;;27.92;;
23159;SDS011;11748;50.844;4.396;2022-11-20T02:34:49;41.42;;;25.55;;
23159;SDS011;11748;50.844;4.396;2022-11-20T02:37:15;42.28;;;24.95;;
23159;SDS011;11748;50.844;4.396;2022-11-20T02:39:41;41.35;;;26.00;;
23159;SDS011;11748;50.844;4.396;2022-11-20T02:42:09;40.63;;;24.90;;
23159;SDS011;11748;50.844;4.396;2022-11-20T02:44:35;38.65;;;23.73;;
23159;SDS011;11748;50.844;4.396;2022-11-20T02:47:00;37.10;;;22.98;;
23159;SDS011;11748;50.844;4.396;2022-11-20T02:49:26;40.03;;;23.73;;
23159;SDS011;11748;50.844;4.396;2022-11-20T02:51:52;33.53;;;22.00;;
23159;SDS011;11748;50.844;4.396;2022-11-20T02:54:18;36.97;;;22.45;;
23159;SDS011;11748;50.844;4.396;2022-11-20T02:56:44;36.92;;;23.00;;
23159;SDS011;11748;50.844;4.396;2022-11-20T02:59:09;40.38;;;22.90;;
23159;SDS011;11748;50.844;4.396;2022-11-20T03:01:35;37.53;;;22.80;;
23159;SDS011;11748;50.844;4.396;2022-11-20T03:04:01;35.85;;;21.48;;
23159;SDS011;11748;50.844;4.396;2022-11-20T03:06:27;38.60;;;22.13;;
23159;SDS011;11748;50.844;4.396;2022-11-20T03:08:53;34.78;;;20.85;;
23159;SDS011;11748;50.844;4.396;2022-11-20T03:11:19;36.92;;;21.98;;
23159;SDS011;11748;50.844;4.396;2022-11-20T03:13:45;33.53;;;20.25;;
23159;SDS011;11748;50.844;4.396;2022-11-20T03:16:15;33.70;;;20.42;;
23159;SDS011;11748;50.844;4.396;2022-11-20T03:18:42;33.97;;;20.48;;
23159;SDS011;11748;50.844;4.396;2022-11-20T03:21:08;31.98;;;18.35;;
23159;SDS011;11748;50.844;4.396;2022-11-20T03:23:36;31.48;;;18.55;;
23159;SDS011;11748;50.844;4.396;2022-11-20T03:28:41;30.63;;;18.77;;
23159;SDS011;11748;50.844;4.396;2022-11-20T03:31:11;28.75;;;16.77;;
23159;SDS011;11748;50.844;4.396;2022-11-20T03:33:39;31.77;;;19.67;;
23159;SDS011;11748;50.844;4.396;2022-11-20T03:36:07;31.20;;;18.48;;
23159;SDS011;11748;50.844;4.396;2022-11-20T03:38:35;36.95;;;20.02;;
23159;SDS011;11748;50.844;4.396;2022-11-20T03:41:02;32.38;;;19.05;;
23159;SDS011;11748;50.844;4.396;2022-11-20T03:43:32;33.92;;;19.73;;
23159;SDS011;11748;50.844;4.396;2022-11-20T03:45:59;35.53;;;20.92;;
23159;SDS011;11748;50.844;4.396;2022-11-20T03:48:24;37.97;;;20.52;;
23159;SDS011;11748;50.844;4.396;2022-11-20T03:50:51;33.75;;;20.63;;
23159;SDS011;11748;50.844;4.396;2022-11-20T03:53:18;38.88;;;20.35;;
23159;SDS011;11748;50.844;4.396;2022-11-20T03:55:45;38.72;;;20.38;;
23159;SDS011;11748;50.844;4.396;2022-11-20T03:58:15;37.80;;;23.00;;
23159;SDS011;11748;50.844;4.396;2022-11-20T04:00:40;36.20;;;21.67;;
23159;SDS011;11748;50.844;4.396;2022-11-20T04:03:06;37.20;;;21.83;;
23159;SDS011;11748;50.844;4.396;2022-11-20T04:05:32;38.53;;;22.08;;
23159;SDS011;11748;50.844;4.396;2022-11-20T04:07:59;42.80;;;23.23;;
23159;SDS011;11748;50.844;4.396;2022-11-20T04:10:25;41.80;;;22.63;;
23159;SDS011;11748;50.844;4.396;2022-11-20T04:12:50;45.28;;;23.33;;
23159;SDS011;11748;50.844;4.396;2022-11-20T04:15:16;41.28;;;22.83;;
23159;SDS011;11748;50.844;4.396;2022-11-20T04:17:42;42.30;;;22.88;;
23159;SDS011;11748;50.844;4.396;2022-11-20T04:20:07;44.38;;;23.75;;
23159;SDS011;11748;50.844;4.396;2022-11-20T04:22:33;43.95;;;23.20;;
23159;SDS011;11748;50.844;4.396;2022-11-20T04:24:59;46.28;;;24.92;;
23159;SDS011;11748;50.844;4.396;2022-11-20T04:27:24;46.15;;;24.42;;
23159;SDS011;11748;50.844;4.396;2022-11-20T04:29:50;44.65;;;24.35;;
23159;SDS011;11748;50.844;4.396;2022-11-20T04:32:16;46.83;;;24.42;;
23159;SDS011;11748;50.844;4.396;2022-11-20T04:34:41;45.95;;;24.58;;
23159;SDS011;11748;50.844;4.396;2022-11-20T04:37:07;50.85;;;25.70;;
23159;SDS011;11748;50.844;4.396;2022-11-20T04:39:33;55.60;;;26.20;;
23159;SDS011;11748;50.844;4.396;2022-11-20T04:41:58;52.17;;;25.52;;
23159;SDS011;11748;50.844;4.396;2022-11-20T04:44:42;52.17;;;25.58;;
23159;SDS011;11748;50.844;4.396;2022-11-20T04:47:08;52.65;;;26.27;;
23159;SDS011;11748;50.844;4.396;2022-11-20T04:49:34;49.40;;;25.50;;
23159;SDS011;11748;50.844;4.396;2022-11-20T04:51:59;53.15;;;25.75;;
23159;SDS011;11748;50.844;4.396;2022-11-20T04:54:25;54.78;;;26.02;;
23159;SDS011;11748;50.844;4.396;2022-11-20T04:56:51;56.42;;;26.27;;
23159;SDS011;11748;50.844;4.396;2022-11-20T04:59:16;51.60;;;25.42;;
23159;SDS011;11748;50.844;4.396;2022-11-20T05:01:42;49.90;;;24.83;;
23159;SDS011;11748;50.844;4.396;2022-11-20T05:04:08;49.03;;;24.75;;
23159;SDS011;11748;50.844;4.396;2022-11-20T05:06:33;51.47;;;25.70;;
23159;SDS011;11748;50.844;4.396;2022-11-20T05:08:59;49.15;;;25.48;;
23159;SDS011;11748;50.844;4.396;2022-11-20T05:11:25;49.28;;;25.85;;
23159;SDS011;11748;50.844;4.396;2022-11-20T05:13:54;48.28;;;25.17;;
23159;SDS011;11748;50.844;4.396;2022-11-20T05:16:21;45.25;;;24.80;;
23159;SDS011;11748;50.844;4.396;2022-11-20T05:18:48;51.83;;;26.95;;
23159;SDS011;11748;50.844;4.396;2022-11-20T05:21:15;54.70;;;26.13;;
23159;SDS011;11748;50.844;4.396;2022-11-20T05:23:42;50.40;;;25.02;;
23159;SDS011;11748;50.844;4.396;2022-11-20T05:26:12;53.45;;;26.50;;
23159;SDS011;11748;50.844;4.396;2022-11-20T05:28:42;50.40;;;26.33;;
23159;SDS011;11748;50.844;4.396;2022-11-20T05:31:12;57.83;;;27.20;;
23159;SDS011;11748;50.844;4.396;2022-11-20T05:33:48;55.00;;;26.92;;
23159;SDS011;11748;50.844;4.396;2022-11-20T05:36:14;54.80;;;26.95;;
23159;SDS011;11748;50.844;4.396;2022-11-20T05:38:41;57.60;;;26.73;;
23159;SDS011;11748;50.844;4.396;2022-11-20T05:41:14;58.85;;;28.05;;
23159;SDS011;11748;50.844;4.396;2022-11-20T05:46:09;54.50;;;26.67;;
23159;SDS011;11748;50.844;4.396;2022-11-20T05:48:37;51.33;;;26.55;;
23159;SDS011;11748;50.844;4.396;2022-11-20T05:51:06;54.65;;;28.02;;
23159;SDS011;11748;50.844;4.396;2022-11-20T05:53:34;54.05;;;28.67;;
23159;SDS011;11748;50.844;4.396;2022-11-20T05:56:01;50.20;;;26.83;;
23159;SDS011;11748;50.844;4.396;2022-11-20T05:58:30;55.67;;;27.95;;
23159;SDS011;11748;50.844;4.396;2022-11-20T06:01:06;51.78;;;27.13;;
23159;SDS011;11748;50.844;4.396;2022-11-20T06:03:37;52.88;;;26.27;;
23159;SDS011;11748;50.844;4.396;2022-11-20T06:06:03;52.90;;;27.42;;
23159;SDS011;11748;50.844;4.396;2022-11-20T06:08:30;56.85;;;26.65;;
23159;SDS011;11748;50.844;4.396;2022-11-20T06:10:57;51.70;;;26.70;;
23159;SDS011;11748;50.844;4.396;2022-11-20T06:13:23;51.90;;;26.38;;
23159;SDS011;11748;50.844;4.396;2022-11-20T06:15:49;62.13;;;27.75;;
23159;SDS011;11748;50.844;4.396;2022-11-20T06:18:15;56.70;;;28.40;;
23159;SDS011;11748;50.844;4.396;2022-11-20T06:20:41;53.00;;;26.48;;
23159;SDS011;11748;50.844;4.396;2022-11-20T06:23:07;55.60;;;26.50;;
23159;SDS011;11748;50.844;4.396;2022-11-20T06:25:32;57.92;;;27.85;;
23159;SDS011;11748;50.844;4.396;2022-11-20T06:27:58;52.85;;;26.42;;
23159;SDS011;11748;50.844;4.396;2022-11-20T06:30:24;61.00;;;28.13;;
23159;SDS011;11748;50.844;4.396;2022-11-20T06:32:49;58.90;;;27.08;;
23159;SDS011;11748;50.844;4.396;2022-11-20T06:35:15;64.60;;;30.40;;
23159;SDS011;11748;50.844;4.396;2022-11-20T06:37:42;58.47;;;27.45;;
23159;SDS011;11748;50.844;4.396;2022-11-20T06:40:07;57.72;;;26.92;;
23159;SDS011;11748;50.844;4.396;2022-11-20T06:42:34;60.20;;;28.10;;
23159;SDS011;11748;50.844;4.396;2022-11-20T06:44:59;58.22;;;27.08;;
23159;SDS011;11748;50.844;4.396;2022-11-20T06:47:25;56.83;;;28.15;;
23159;SDS011;11748;50.844;4.396;2022-11-20T06:49:51;62.13;;;28.20;;
23159;SDS011;11748;50.844;4.396;2022-11-20T06:52:16;58.28;;;26.83;;
23159;SDS011;11748;50.844;4.396;2022-11-20T06:54:42;59.22;;;27.50;;
23159;SDS011;11748;50.844;4.396;2022-11-20T06:57:08;58.63;;;27.83;;
23159;SDS011;11748;50.844;4.396;2022-11-20T06:59:33;56.50;;;27.90;;
23159;SDS011;11748;50.844;4.396;2022-11-20T07:01:59;56.72;;;26.55;;
23159;SDS011;11748;50.844;4.396;2022-11-20T07:04:25;57.95;;;28.40;;
23159;SDS011;11748;50.844;4.396;2022-11-20T07:06:50;59.30;;;27.67;;
23159;SDS011;11748;50.844;4.396;2022-11-20T07:09:16;58.03;;;26.88;;
23159;SDS011;11748;50.844;4.396;2022-11-20T07:11:42;57.05;;;26.50;;
23159;SDS011;11748;50.844;4.396;2022-11-20T07:14:08;62.45;;;27.58;;
23159;SDS011;11748;50.844;4.396;2022-11-20T07:16:34;57.65;;;27.40;;
23159;SDS011;11748;50.844;4.396;2022-11-20T07:19:00;58.20;;;27.35;;
23159;SDS011;11748;50.844;4.396;2022-11-20T07:21:26;59.30;;;27.83;;
23159;SDS011;11748;50.844;4.396;2022-11-20T07:23:51;57.25;;;28.08;;
23159;SDS011;11748;50.844;4.396;2022-11-20T07:26:18;56.03;;;26.17;;
23159;SDS011;11748;50.844;4.396;2022-11-20T07:28:45;55.42;;;26.88;;
23159;SDS011;11748;50.844;4.396;2022-11-20T07:31:11;58.83;;;26.45;;
23159;SDS011;11748;50.844;4.396;2022-11-20T07:33:38;58.90;;;27.10;;
23159;SDS011;11748;50.844;4.396;2022-11-20T07:36:04;56.10;;;27.35;;
23159;SDS011;11748;50.844;4.396;2022-11-20T07:38:30;57.85;;;26.13;;
23159;SDS011;11748;50.844;4.396;2022-11-20T07:40:56;55.42;;;26.80;;
23159;SDS011;11748;50.844;4.396;2022-11-20T07:43:28;51.97;;;25.85;;
23159;SDS011;11748;50.844;4.396;2022-11-20T07:45:57;53.17;;;25.38;;
23159;SDS011;11748;50.844;4.396;2022-11-20T07:48:24;56.67;;;26.60;;
23159;SDS011;11748;50.844;4.396;2022-11-20T07:50:54;58.80;;;27.63;;
23159;SDS011;11748;50.844;4.396;2022-11-20T07:53:21;62.38;;;28.02;;
23159;SDS011;11748;50.844;4.396;2022-11-20T07:55:47;59.45;;;26.27;;
23159;SDS011;11748;50.844;4.396;2022-11-20T07:58:14;60.55;;;26.70;;
23159;SDS011;11748;50.844;4.396;2022-11-20T08:00:40;57.65;;;26.63;;
23159;SDS011;11748;50.844;4.396;2022-11-20T08:03:06;60.15;;;26.80;;
23159;SDS011;11748;50.844;4.396;2022-11-20T08:05:32;60.83;;;27.48;;
23159;SDS011;11748;50.844;4.396;2022-11-20T08:07:59;62.13;;;27.63;;
23159;SDS011;11748;50.844;4.396;2022-11-20T08:10:25;56.28;;;27.10;;
23159;SDS011;11748;50.844;4.396;2022-11-20T08:12:51;61.92;;;26.50;;
23159;SDS011;11748;50.844;4.396;2022-11-20T08:15:38;60.88;;;26.13;;
23159;SDS011;11748;50.844;4.396;2022-11-20T08:18:05;62.75;;;26.40;;
23159;SDS011;11748;50.844;4.396;2022-11-20T08:20:31;52.33;;;25.05;;
23159;SDS011;11748;50.844;4.396;2022-11-20T08:22:58;58.65;;;26.40;;
23159;SDS011;11748;50.844;4.396;2022-11-20T08:25:25;62.28;;;26.05;;
23159;SDS011;11748;50.844;4.396;2022-11-20T08:27:52;62.13;;;26.75;;
23159;SDS011;11748;50.844;4.396;2022-11-20T08:30:18;54.53;;;25.52;;
23159;SDS011;11748;50.844;4.396;2022-11-20T08:32:44;55.50;;;25.58;;
23159;SDS011;11748;50.844;4.396;2022-11-20T08:35:09;61.80;;;25.92;;
23159;SDS011;11748;50.844;4.396;2022-11-20T08:37:35;61.55;;;27.30;;
23159;SDS011;11748;50.844;4.396;2022-11-20T08:40:03;62.42;;;27.15;;
23159;SDS011;11748;50.844;4.396;2022-11-20T08:42:29;56.90;;;27.10;;
23159;SDS011;11748;50.844;4.396;2022-11-20T08:44:58;60.25;;;26.13;;
23159;SDS011;11748;50.844;4.396;2022-11-20T08:47:26;57.63;;;25.23;;
23159;SDS011;11748;50.844;4.396;2022-11-20T08:49:52;59.63;;;26.15;;
23159;SDS011;11748;50.844;4.396;2022-11-20T08:52:18;56.08;;;25.42;;
23159;SDS011;11748;50.844;4.396;2022-11-20T08:54:49;58.35;;;24.33;;
23159;SDS011;11748;50.844;4.396;2022-11-20T08:57:16;59.25;;;25.52;;
23159;SDS011;11748;50.844;4.396;2022-11-20T08:59:42;54.63;;;25.60;;
23159;SDS011;11748;50.844;4.396;2022-11-20T09:02:08;57.15;;;24.13;;
23159;SDS011;11748;50.844;4.396;2022-11-20T09:04:34;49.88;;;24.30;;
23159;SDS011;11748;50.844;4.396;2022-11-20T09:07:00;53.97;;;23.98;;
23159;SDS011;11748;50.844;4.396;2022-11-20T09:09:27;52.78;;;23.05;;
23159;SDS011;11748;50.844;4.396;2022-11-20T09:11:57;49.40;;;23.13;;
23159;SDS011;11748;50.844;4.396;2022-11-20T09:14:23;48.60;;;23.08;;
23159;SDS011;11748;50.844;4.396;2022-11-20T09:16:59;50.83;;;22.65;;
23159;SDS011;11748;50.844;4.396;2022-11-20T09:19:26;48.40;;;22.08;;
23159;SDS011;11748;50.844;4.396;2022-11-20T09:21:52;40.13;;;20.80;;
23159;SDS011;11748;50.844;4.396;2022-11-20T09:24:18;46.30;;;21.55;;
23159;SDS011;11748;50.844;4.396;2022-11-20T09:26:44;46.20;;;22.25;;
23159;SDS011;11748;50.844;4.396;2022-11-20T09:29:10;45.53;;;20.67;;
23159;SDS011;11748;50.844;4.396;2022-11-20T09:31:35;44.38;;;21.85;;
23159;SDS011;11748;50.844;4.396;2022-11-20T09:34:01;41.30;;;19.42;;
23159;SDS011;11748;50.844;4.396;2022-11-20T09:36:27;44.08;;;20.95;;
23159;SDS011;11748;50.844;4.396;2022-11-20T09:38:53;39.53;;;18.85;;
23159;SDS011;11748;50.844;4.396;2022-11-20T09:41:27;38.47;;;19.70;;
23159;SDS011;11748;50.844;4.396;2022-11-20T09:46:55;38.22;;;19.30;;
23159;SDS011;11748;50.844;4.396;2022-11-20T09:49:30;34.25;;;18.50;;
23159;SDS011;11748;50.844;4.396;2022-11-20T09:51:59;33.28;;;18.10;;
23159;SDS011;11748;50.844;4.396;2022-11-20T09:54:45;34.35;;;17.52;;
23159;SDS011;11748;50.844;4.396;2022-11-20T09:57:12;32.38;;;16.25;;
23159;SDS011;11748;50.844;4.396;2022-11-20T09:59:43;32.92;;;15.85;;
23159;SDS011;11748;50.844;4.396;2022-11-20T10:02:16;30.42;;;15.43;;
23159;SDS011;11748;50.844;4.396;2022-11-20T10:07:47;29.15;;;14.32;;
23159;SDS011;11748;50.844;4.396;2022-11-20T10:10:17;25.13;;;13.93;;
23159;SDS011;11748;50.844;4.396;2022-11-20T10:12:54;26.45;;;13.18;;
23159;SDS011;11748;50.844;4.396;2022-11-20T10:15:57;20.23;;;12.80;;
23159;SDS011;11748;50.844;4.396;2022-11-20T10:26:51;16.75;;;9.25;;
23159;SDS011;11748;50.844;4.396;2022-11-20T10:29:28;15.82;;;9.57;;
23159;SDS011;11748;50.844;4.396;2022-11-20T10:32:08;17.40;;;8.32;;
23159;SDS011;11748;50.844;4.396;2022-11-20T10:34:42;14.52;;;7.93;;
23159;SDS011;11748;50.844;4.396;2022-11-20T10:37:25;14.93;;;7.18;;
23159;SDS011;11748;50.844;4.396;2022-11-20T10:42:58;15.18;;;7.65;;
23159;SDS011;11748;50.844;4.396;2022-11-20T10:48:24;12.90;;;6.40;;
23159;SDS011;11748;50.844;4.396;2022-11-20T10:56:41;12.73;;;5.70;;
23159;SDS011;11748;50.844;4.396;2022-11-20T11:01:43;13.50;;;5.47;;
23159;SDS011;11748;50.844;4.396;2022-11-20T11:04:26;10.85;;;4.47;;
23159;SDS011;11748;50.844;4.396;2022-11-20T11:07:10;7.60;;;4.03;;
23159;SDS011;11748;50.844;4.396;2022-11-20T11:09:58;8.93;;;3.70;;
23159;SDS011;11748;50.844;4.396;2022-11-20T11:12:25;10.02;;;3.88;;
23159;SDS011;11748;50.844;4.396;2022-11-20T11:14:53;9.02;;;3.80;;
23159;SDS011;11748;50.844;4.396;2022-11-20T11:17:21;5.07;;;2.90;;
23159;SDS011;11748;50.844;4.396;2022-11-20T11:22:32;10.02;;;3.85;;
23159;SDS011;11748;50.844;4.396;2022-11-20T11:25:07;12.95;;;4.38;;
23159;SDS011;11748;50.844;4.396;2022-11-20T11:27:47;7.35;;;3.17;;
23159;SDS011;11748;50.844;4.396;2022-11-20T11:30:15;8.20;;;4.07;;
23159;SDS011;11748;50.844;4.396;2022-11-20T11:32:43;7.60;;;3.58;;
23159;SDS011;11748;50.844;4.396;2022-11-20T11:35:28;6.05;;;2.70;;
23159;SDS011;11748;50.844;4.396;2022-11-20T11:37:54;9.13;;;3.30;;
23159;SDS011;11748;50.844;4.396;2022-11-20T11:40:30;5.40;;;2.85;;
23159;SDS011;11748;50.844;4.396;2022-11-20T11:42:59;8.25;;;3.33;;
23159;SDS011;11748;50.844;4.396;2022-11-20T11:45:32;10.40;;;3.30;;
23159;SDS011;11748;50.844;4.396;2022-11-20T11:47:58;6.45;;;2.80;;
23159;SDS011;11748;50.844;4.396;2022-11-20T11:50:28;9.73;;;2.83;;
23159;SDS011;11748;50.844;4.396;2022-11-20T12:07:28;7.40;;;2.70;;
23159;SDS011;11748;50.844;4.396;2022-11-20T12:10:04;9.30;;;2.85;;
23159;SDS011;11748;50.844;4.396;2022-11-20T12:12:38;8.48;;;2.75;;
23159;SDS011;11748;50.844;4.396;2022-11-20T12:15:10;5.65;;;2.50;;
23159;SDS011;11748;50.844;4.396;2022-11-20T12:17:41;6.22;;;3.47;;
23159;SDS011;11748;50.844;4.396;2022-11-20T12:20:11;7.95;;;2.83;;
23159;SDS011;11748;50.844;4.396;2022-11-20T12:25:21;11.52;;;2.85;;
23159;SDS011;11748;50.844;4.396;2022-11-20T12:30:20;9.13;;;3.50;;
23159;SDS011;11748;50.844;4.396;2022-11-20T12:38:40;9.48;;;3.03;;
23159;SDS011;11748;50.844;4.396;2022-11-20T12:41:43;5.82;;;3.03;;
23159;SDS011;11748;50.844;4.396;2022-11-20T12:58:15;11.07;;;3.60;;
23159;SDS011;11748;50.844;4.396;2022-11-20T13:00:50;6.32;;;3.03;;
23159;SDS011;11748;50.844;4.396;2022-11-20T13:03:58;7.57;;;3.20;;
23159;SDS011;11748;50.844;4.396;2022-11-20T13:06:49;9.93;;;2.75;;
23159;SDS011;11748;50.844;4.396;2022-11-20T13:09:16;5.47;;;3.13;;
23159;SDS011;11748;50.844;4.396;2022-11-20T13:19:54;7.05;;;2.38;;
23159;SDS011;11748;50.844;4.396;2022-11-20T13:22:27;6.57;;;3.72;;
23159;SDS011;11748;50.844;4.396;2022-11-20T13:24:54;5.22;;;2.90;;
23159;SDS011;11748;50.844;4.396;2022-11-20T13:27:23;6.85;;;2.92;;
23159;SDS011;11748;50.844;4.396;2022-11-20T13:32:47;5.65;;;2.90;;
23159;SDS011;11748;50.844;4.396;2022-11-20T13:35:23;6.47;;;3.20;;
23159;SDS011;11748;50.844;4.396;2022-11-20T13:37:59;7.47;;;3.63;;
23159;SDS011;11748;50.844;4.396;2022-11-20T13:40:26;5.80;;;3.28;;
23159;SDS011;11748;50.844;4.396;2022-11-20T13:43:00;5.88;;;3.10;;
23159;SDS011;11748;50.844;4.396;2022-11-20T13:45:54;3.78;;;2.83;;
23159;SDS011;11748;50.844;4.396;2022-11-20T13:48:30;6.50;;;3.25;;
23159;SDS011;11748;50.844;4.396;2022-11-20T13:51:09;4.72;;;2.85;;
23159;SDS011;11748;50.844;4.396;2022-11-20T13:53:47;3.92;;;2.70;;
23159;SDS011;11748;50.844;4.396;2022-11-20T13:59:21;4.13;;;2.70;;
23159;SDS011;11748;50.844;4.396;2022-11-20T14:01:52;4.22;;;2.00;;
23159;SDS011;11748;50.844;4.396;2022-11-20T14:04:21;3.53;;;2.30;;
23159;SDS011;11748;50.844;4.396;2022-11-20T14:07:01;3.95;;;1.90;;
23159;SDS011;11748;50.844;4.396;2022-11-20T14:09:32;4.88;;;2.38;;
23159;SDS011;11748;50.844;4.396;2022-11-20T14:12:00;3.78;;;1.92;;
23159;SDS011;11748;50.844;4.396;2022-11-20T14:14:28;4.20;;;2.28;;
23159;SDS011;11748;50.844;4.396;2022-11-20T14:17:09;2.38;;;1.92;;
23159;SDS011;11748;50.844;4.396;2022-11-20T14:19:44;2.95;;;2.00;;
23159;SDS011;11748;50.844;4.396;2022-11-20T14:22:19;2.97;;;1.70;;
23159;SDS011;11748;50.844;4.396;2022-11-20T14:24:45;3.95;;;1.80;;
23159;SDS011;11748;50.844;4.396;2022-11-20T14:27:12;2.65;;;1.98;;
23159;SDS011;11748;50.844;4.396;2022-11-20T14:29:45;3.50;;;2.25;;
23159;SDS011;11748;50.844;4.396;2022-11-20T14:32:17;4.40;;;1.95;;
23159;SDS011;11748;50.844;4.396;2022-11-20T14:34:44;4.93;;;2.10;;
23159;SDS011;11748;50.844;4.396;2022-11-20T14:37:17;2.63;;;2.05;;
23159;SDS011;11748;50.844;4.396;2022-11-20T14:39:49;5.63;;;2.50;;
23159;SDS011;11748;50.844;4.396;2022-11-20T14:42:18;2.30;;;1.90;;
23159;SDS011;11748;50.844;4.396;2022-11-20T14:44:44;3.35;;;2.40;;
23159;SDS011;11748;50.844;4.396;2022-11-20T14:47:12;2.50;;;2.10;;
23159;SDS011;11748;50.844;4.396;2022-11-20T14:49:41;3.03;;;2.28;;
23159;SDS011;11748;50.844;4.396;2022-11-20T14:52:18;3.50;;;2.47;;
23159;SDS011;11748;50.844;4.396;2022-11-20T14:54:46;2.83;;;2.28;;
23159;SDS011;11748;50.844;4.396;2022-11-20T14:57:32;3.83;;;2.67;;
23159;SDS011;11748;50.844;4.396;2022-11-20T15:00:06;4.22;;;2.90;;
23159;SDS011;11748;50.844;4.396;2022-11-20T15:02:32;4.78;;;2.42;;
23159;SDS011;11748;50.844;4.396;2022-11-20T15:04:59;5.45;;;2.70;;
23159;SDS011;11748;50.844;4.396;2022-11-20T15:07:35;6.90;;;2.47;;
23159;SDS011;11748;50.844;4.396;2022-11-20T15:12:59;5.30;;;2.60;;
23159;SDS011;11748;50.844;4.396;2022-11-20T15:18:01;5.78;;;2.83;;
23159;SDS011;11748;50.844;4.396;2022-11-20T15:20:28;4.65;;;2.40;;
23159;SDS011;11748;50.844;4.396;2022-11-20T15:22:56;4.45;;;2.45;;
23159;SDS011;11748;50.844;4.396;2022-11-20T15:25:22;4.10;;;2.38;;
23159;SDS011;11748;50.844;4.396;2022-11-20T15:27:50;5.88;;;2.17;;
23159;SDS011;11748;50.844;4.396;2022-11-20T15:30:20;6.97;;;3.22;;
23159;SDS011;11748;50.844;4.396;2022-11-20T15:32:46;4.65;;;2.75;;
23159;SDS011;11748;50.844;4.396;2022-11-20T15:35:12;3.63;;;2.80;;
23159;SDS011;11748;50.844;4.396;2022-11-20T15:37:41;5.90;;;3.40;;
23159;SDS011;11748;50.844;4.396;2022-11-20T15:40:08;4.30;;;2.75;;
23159;SDS011;11748;50.844;4.396;2022-11-20T15:42:34;6.03;;;3.17;;
23159;SDS011;11748;50.844;4.396;2022-11-20T15:45:01;5.70;;;3.00;;
23159;SDS011;11748;50.844;4.396;2022-11-20T15:47:31;7.38;;;3.28;;
23159;SDS011;11748;50.844;4.396;2022-11-20T15:49:59;6.97;;;3.10;;
23159;SDS011;11748;50.844;4.396;2022-11-20T15:52:25;5.47;;;3.10;;
23159;SDS011;11748;50.844;4.396;2022-11-20T15:54:51;8.50;;;3.45;;
23159;SDS011;11748;50.844;4.396;2022-11-20T15:57:17;5.75;;;3.30;;
23159;SDS011;11748;50.844;4.396;2022-11-20T15:59:42;7.57;;;3.08;;
23159;SDS011;11748;50.844;4.396;2022-11-20T16:02:09;7.22;;;3.40;;
23159;SDS011;11748;50.844;4.396;2022-11-20T16:04:38;6.35;;;3.20;;
23159;SDS011;11748;50.844;4.396;2022-11-20T16:07:04;9.32;;;3.67;;
23159;SDS011;11748;50.844;4.396;2022-11-20T16:09:30;7.95;;;3.50;;
23159;SDS011;11748;50.844;4.396;2022-11-20T16:11:56;10.13;;;3.22;;
23159;SDS011;11748;50.844;4.396;2022-11-20T16:14:24;9.52;;;3.55;;
23159;SDS011;11748;50.844;4.396;2022-11-20T16:17:08;6.15;;;2.25;;
23159;SDS011;11748;50.844;4.396;2022-11-20T16:19:34;9.73;;;2.85;;
23159;SDS011;11748;50.844;4.396;2022-11-20T16:22:00;14.35;;;3.60;;
23159;SDS011;11748;50.844;4.396;2022-11-20T16:24:26;10.50;;;2.80;;
23159;SDS011;11748;50.844;4.396;2022-11-20T16:26:58;10.27;;;3.08;;
23159;SDS011;11748;50.844;4.396;2022-11-20T16:29:25;12.32;;;3.42;;